Time;durP1;ratioP1;P1;durP2;ratioP2;P2;SDS_P1;SDS_P2;PMS_P1;PMS_P2;Temp;Humidity;BMP_temperature;BMP_pressure;BME280_temperature;BME280_humidity;BME280_pressure;Samples;Min_cycle;Max_cycle;Signal;HPM_P1;HPM_P2
2022/06/15 00:00:04;;;;;;;2.30;1.40;;;;;;;;;;515101;28;1436;-84
2022/06/15 00:00:19;;;;;;;2.67;1.40;;;;;;;;;;513700;28;1472;-84
2022/06/15 00:00:35;;;;;;;2.60;1.40;;;;;;;;;;511706;28;1591;-84
2022/06/15 00:01:00;;;;;;;3.40;1.50;;;;;;;;;;510370;29;1349;-84
2022/06/15 00:01:21;;;;;;;2.47;1.40;;;;;;;;;;511972;29;1108;-84
2022/06/15 00:01:37;;;;;;;3.15;1.50;;;;;;;;;;513802;28;1368;-84
2022/06/15 00:01:52;;;;;;;3.50;1.50;;;;;;;;;;511653;29;1196;-84
2022/06/15 00:02:08;;;;;;;2.88;1.50;;;;;;;;;;511786;29;1290;-84
2022/06/15 00:02:23;;;;;;;2.60;1.50;;;;;;;;;;513631;28;1142;-85
2022/06/15 00:02:38;;;;;;;4.07;1.50;;;;;;;;;;512505;28;1507;-84
2022/06/15 00:02:54;;;;;;;4.53;1.50;;;;;;;;;;510471;29;1616;-85
2022/06/15 00:03:10;;;;;;;3.28;1.50;;;;;;;;;;509600;29;1563;-84
2022/06/15 00:03:30;;;;;;;2.75;1.40;;;;;;;;;;510440;29;957;-84
2022/06/15 00:03:46;;;;;;;3.95;1.40;;;;;;;;;;512867;28;1264;-84
2022/06/15 00:04:03;;;;;;;4.20;1.52;;;;;;;;;;513784;28;1542;-85
2022/06/15 00:04:18;;;;;;;4.57;1.40;;;;;;;;;;513432;28;1665;-84
2022/06/15 00:04:34;;;;;;;4.47;1.40;;;;;;;;;;515556;28;1776;-85
2022/06/15 00:04:49;;;;;;;3.03;1.40;;;;;;;;;;514438;28;1219;-85
2022/06/15 00:05:05;;;;;;;3.00;1.27;;;;;;;;;;515674;28;1472;-84
2022/06/15 00:05:21;;;;;;;3.55;1.30;;;;;;;;;;515764;28;1299;-85
2022/06/15 00:05:36;;;;;;;3.57;1.30;;;;;;;;;;514596;28;1543;-84
2022/06/15 00:06:02;;;;;;;3.78;1.45;;;;;;;;;;513920;28;1320;-84
2022/06/15 00:06:29;;;;;;;3.55;1.40;;;;;;;;;;513877;28;1339;-84
2022/06/15 00:06:44;;;;;;;4.43;1.42;;;;;;;;;;511537;29;1620;-84
2022/06/15 00:07:00;;;;;;;3.37;1.47;;;;;;;;;;510977;29;1509;-85
2022/06/15 00:07:15;;;;;;;2.57;1.43;;;;;;;;;;513662;28;1365;-84
2022/06/15 00:07:31;;;;;;;3.97;1.40;;;;;;;;;;515954;28;803;-84
2022/06/15 00:07:46;;;;;;;5.40;1.40;;;;;;;;;;517745;28;1432;-84
2022/06/15 00:08:02;;;;;;;3.92;1.50;;;;;;;;;;518005;28;1420;-84
2022/06/15 00:08:19;;;;;;;3.83;1.60;;;;;;;;;;519666;28;1412;-84
2022/06/15 00:08:35;;;;;;;4.18;1.60;;;;;;;;;;520093;28;1561;-84
2022/06/15 00:08:55;;;;;;;3.85;1.50;;;;;;;;;;518222;28;1260;-84
2022/06/15 00:09:11;;;;;;;3.70;1.55;;;;;;;;;;517710;28;1503;-84
2022/06/15 00:09:27;;;;;;;3.63;1.50;;;;;;;;;;515870;28;1501;-84
2022/06/15 00:09:42;;;;;;;4.28;1.50;;;;;;;;;;516233;28;1280;-84
2022/06/15 00:09:58;;;;;;;4.70;1.50;;;;;;;;;;514477;28;1408;-84
2022/06/15 00:10:13;;;;;;;5.10;1.50;;;;;;;;;;515262;28;1633;-84
2022/06/15 00:10:29;;;;;;;4.82;1.60;;;;;;;;;;513415;28;1481;-84
2022/06/15 00:10:44;;;;;;;4.30;1.60;;;;;;;;;;513983;28;1716;-84
2022/06/15 00:11:28;;;;;;;4.20;1.50;;;;;;;;;;512155;28;1487;-84
2022/06/15 00:11:45;;;;;;;3.72;1.40;;;;;;;;;;508615;29;1245;-85
2022/06/15 00:12:00;;;;;;;4.15;1.45;;;;;;;;;;508529;29;1436;-84
2022/06/15 00:12:15;;;;;;;3.97;1.40;;;;;;;;;;509954;29;1494;-84
2022/06/15 00:12:31;;;;;;;3.17;1.50;;;;;;;;;;511419;28;1400;-84
2022/06/15 00:12:47;;;;;;;3.67;1.53;;;;;;;;;;513561;28;1390;-84
2022/06/15 00:13:02;;;;;;;3.25;1.48;;;;;;;;;;513938;28;1367;-84
2022/06/15 00:13:18;;;;;;;4.25;1.48;;;;;;;;;;516538;28;779;-84
2022/06/15 00:13:33;;;;;;;4.27;1.40;;;;;;;;;;515544;28;1029;-84
2022/06/15 00:13:50;;;;;;;2.90;1.30;;;;;;;;;;516110;28;1483;-84
2022/06/15 00:14:12;;;;;;;3.05;1.40;;;;;;;;;;516099;28;1622;-84
2022/06/15 00:14:29;;;;;;;2.67;1.40;;;;;;;;;;516771;28;1219;-84
2022/06/15 00:14:44;;;;;;;3.60;1.50;;;;;;;;;;515385;28;1247;-84
2022/06/15 00:15:00;;;;;;;4.10;1.60;;;;;;;;;;513625;28;1507;-84
2022/06/15 00:15:15;;;;;;;3.40;1.50;;;;;;;;;;512873;28;1462;-84
2022/06/15 00:15:31;;;;;;;3.17;1.23;;;;;;;;;;513592;28;1211;-84
2022/06/15 00:15:48;;;;;;;2.27;1.30;;;;;;;;;;513524;28;1702;-84
2022/06/15 00:16:05;;;;;;;2.75;1.40;;;;;;;;;;512371;28;1424;-84
2022/06/15 00:16:21;;;;;;;3.75;1.40;;;;;;;;;;514685;28;1443;-84
2022/06/15 00:16:36;;;;;;;3.63;1.40;;;;;;;;;;514319;28;1216;-84
2022/06/15 00:16:52;;;;;;;3.85;1.40;;;;;;;;;;517740;28;1286;-84
2022/06/15 00:17:08;;;;;;;3.35;1.40;;;;;;;;;;518544;28;1248;-84
2022/06/15 00:17:23;;;;;;;2.63;1.40;;;;;;;;;;518639;28;929;-84
2022/06/15 00:17:39;;;;;;;2.65;1.45;;;;;;;;;;518808;28;957;-84
2022/06/15 00:17:54;;;;;;;3.15;1.50;;;;;;;;;;516856;28;1440;-84
2022/06/15 00:18:10;;;;;;;4.67;1.60;;;;;;;;;;515833;28;1484;-84
2022/06/15 00:18:28;;;;;;;6.03;1.70;;;;;;;;;;516869;28;802;-84
2022/06/15 00:18:45;;;;;;;3.90;1.50;;;;;;;;;;514791;28;1286;-84
2022/06/15 00:19:02;;;;;;;2.70;1.48;;;;;;;;;;515762;28;1383;-84
2022/06/15 00:19:18;;;;;;;2.70;1.50;;;;;;;;;;512495;28;1234;-84
2022/06/15 00:19:34;;;;;;;2.28;1.33;;;;;;;;;;512635;29;1918;-84
2022/06/15 00:19:49;;;;;;;3.10;1.50;;;;;;;;;;514495;28;1134;-84
2022/06/15 00:20:06;;;;;;;3.55;1.50;;;;;;;;;;517607;28;1221;-84
2022/06/15 00:20:21;;;;;;;4.22;1.60;;;;;;;;;;518548;28;1371;-84
2022/06/15 00:20:37;;;;;;;3.35;1.48;;;;;;;;;;520047;28;1168;-84
2022/06/15 00:20:56;;;;;;;3.22;1.40;;;;;;;;;;520384;28;1324;-84
2022/06/15 00:21:13;;;;;;;5.00;1.50;;;;;;;;;;516438;28;1509;-84
2022/06/15 00:21:28;;;;;;;3.70;1.42;;;;;;;;;;516627;28;1222;-84
2022/06/15 00:21:44;;;;;;;2.83;1.50;;;;;;;;;;514608;28;1155;-84
2022/06/15 00:21:59;;;;;;;2.93;1.50;;;;;;;;;;514484;28;1013;-84
2022/06/15 00:22:14;;;;;;;3.55;1.52;;;;;;;;;;512641;28;1270;-84
2022/06/15 00:22:30;;;;;;;3.33;1.43;;;;;;;;;;515005;28;1250;-85
2022/06/15 00:22:45;;;;;;;3.47;1.30;;;;;;;;;;514406;28;1489;-84
2022/06/15 00:23:01;;;;;;;2.92;1.30;;;;;;;;;;514472;28;1459;-84
2022/06/15 00:23:16;;;;;;;2.23;1.40;;;;;;;;;;514530;28;1336;-84
2022/06/15 00:23:33;;;;;;;2.70;1.40;;;;;;;;;;517198;28;1356;-84
2022/06/15 00:23:50;;;;;;;3.20;1.50;;;;;;;;;;520411;28;1382;-84
2022/06/15 00:24:05;;;;;;;3.80;1.50;;;;;;;;;;518320;28;1586;-84
2022/06/15 00:24:22;;;;;;;2.80;1.40;;;;;;;;;;516800;28;1251;-84
2022/06/15 00:24:37;;;;;;;3.17;1.38;;;;;;;;;;515623;28;1432;-84
2022/06/15 00:24:52;;;;;;;3.15;1.38;;;;;;;;;;514067;28;1531;-84
2022/06/15 00:25:09;;;;;;;3.27;1.40;;;;;;;;;;513887;28;1453;-84
2022/06/15 00:25:25;;;;;;;3.70;1.40;;;;;;;;;;514343;28;1362;-84
2022/06/15 00:25:40;;;;;;;3.07;1.40;;;;;;;;;;514368;28;1640;-84
2022/06/15 00:25:56;;;;;;;2.85;1.50;;;;;;;;;;511985;29;1362;-84
2022/06/15 00:26:12;;;;;;;3.10;1.60;;;;;;;;;;513299;28;993;-84
2022/06/15 00:26:27;;;;;;;3.75;1.60;;;;;;;;;;513423;28;1391;-84
2022/06/15 00:26:43;;;;;;;4.13;1.58;;;;;;;;;;515091;28;1349;-84
2022/06/15 00:26:58;;;;;;;3.50;1.50;;;;;;;;;;514502;28;1172;-84
2022/06/15 00:27:14;;;;;;;4.78;1.48;;;;;;;;;;515038;28;1227;-84
2022/06/15 00:27:29;;;;;;;5.13;1.50;;;;;;;;;;514704;28;1524;-84
2022/06/15 00:27:45;;;;;;;4.47;1.45;;;;;;;;;;514439;28;1292;-84
2022/06/15 00:28:00;;;;;;;3.80;1.40;;;;;;;;;;511983;28;1593;-84
2022/06/15 00:28:16;;;;;;;2.95;1.42;;;;;;;;;;512464;29;1040;-83
2022/06/15 00:28:33;;;;;;;3.33;1.60;;;;;;;;;;511125;29;1613;-84
2022/06/15 00:28:48;;;;;;;3.05;1.55;;;;;;;;;;512316;29;1434;-84
2022/06/15 00:29:04;;;;;;;2.22;1.27;;;;;;;;;;514672;28;1267;-83
2022/06/15 00:29:20;;;;;;;3.03;1.40;;;;;;;;;;511917;29;1764;-83
2022/06/15 00:29:37;;;;;;;3.90;1.50;;;;;;;;;;514478;28;1186;-84
2022/06/15 00:29:53;;;;;;;4.30;1.50;;;;;;;;;;512525;29;1260;-83
2022/06/15 00:30:09;;;;;;;4.67;1.50;;;;;;;;;;515549;28;1563;-84
2022/06/15 00:30:24;;;;;;;4.40;1.50;;;;;;;;;;515886;28;1386;-84
2022/06/15 00:30:40;;;;;;;3.72;1.50;;;;;;;;;;514360;28;1335;-83
2022/06/15 00:30:55;;;;;;;3.20;1.63;;;;;;;;;;513895;28;1540;-84
2022/06/15 00:31:11;;;;;;;2.78;1.60;;;;;;;;;;515106;28;1056;-84
2022/06/15 00:31:26;;;;;;;2.05;1.52;;;;;;;;;;514498;28;1634;-83
2022/06/15 00:31:42;;;;;;;2.40;1.50;;;;;;;;;;516878;28;882;-83
2022/06/15 00:31:57;;;;;;;3.73;1.50;;;;;;;;;;517048;28;1308;-84
2022/06/15 00:32:13;;;;;;;4.90;1.50;;;;;;;;;;516098;28;1424;-84
2022/06/15 00:32:28;;;;;;;3.90;1.50;;;;;;;;;;514451;28;1555;-84
2022/06/15 00:32:44;;;;;;;3.17;1.50;;;;;;;;;;516580;28;1208;-84
2022/06/15 00:32:59;;;;;;;2.80;1.40;;;;;;;;;;515816;28;1717;-84
2022/06/15 00:33:15;;;;;;;2.50;1.40;;;;;;;;;;514257;28;1378;-84
2022/06/15 00:33:31;;;;;;;3.70;1.50;;;;;;;;;;512259;28;1536;-84
2022/06/15 00:33:47;;;;;;;3.80;1.48;;;;;;;;;;513831;28;1446;-83
2022/06/15 00:34:03;;;;;;;3.85;1.60;;;;;;;;;;514161;28;1467;-83
2022/06/15 00:34:18;;;;;;;3.42;1.60;;;;;;;;;;514324;28;1542;-83
2022/06/15 00:34:34;;;;;;;3.60;1.50;;;;;;;;;;514145;28;1405;-84
2022/06/15 00:34:49;;;;;;;3.53;1.50;;;;;;;;;;515732;28;1511;-83
2022/06/15 00:35:06;;;;;;;3.92;1.50;;;;;;;;;;513929;28;1383;-84
2022/06/15 00:35:21;;;;;;;4.32;1.50;;;;;;;;;;514216;28;823;-84
2022/06/15 00:35:38;;;;;;;3.60;1.50;;;;;;;;;;514188;28;1485;-83
2022/06/15 00:35:57;;;;;;;3.83;1.50;;;;;;;;;;514991;28;1407;-83
2022/06/15 00:36:19;;;;;;;3.30;1.40;;;;;;;;;;513583;28;1668;-83
2022/06/15 00:36:34;;;;;;;3.38;1.55;;;;;;;;;;514402;28;1603;-83
2022/06/15 00:36:50;;;;;;;3.92;1.60;;;;;;;;;;516215;28;1451;-84
2022/06/15 00:37:06;;;;;;;3.67;1.40;;;;;;;;;;515814;28;1472;-84
2022/06/15 00:37:22;;;;;;;4.10;1.48;;;;;;;;;;516582;28;1559;-84
2022/06/15 00:37:37;;;;;;;3.03;1.40;;;;;;;;;;516205;28;1380;-84
2022/06/15 00:37:53;;;;;;;3.05;1.30;;;;;;;;;;516774;28;905;-84
2022/06/15 00:38:08;;;;;;;2.93;1.30;;;;;;;;;;515283;28;1574;-84
2022/06/15 00:38:32;;;;;;;3.13;1.33;;;;;;;;;;518914;28;1134;-83
2022/06/15 00:38:56;;;;;;;3.92;1.45;;;;;;;;;;517047;28;1518;-83
2022/06/15 00:39:11;;;;;;;4.07;1.73;;;;;;;;;;515357;28;1506;-83
2022/06/15 00:39:28;;;;;;;3.35;1.60;;;;;;;;;;518323;28;1966;-84
2022/06/15 00:39:43;;;;;;;3.22;1.40;;;;;;;;;;518577;28;1312;-84
2022/06/15 00:39:59;;;;;;;3.55;1.50;;;;;;;;;;518515;28;1432;-84
2022/06/15 00:40:14;;;;;;;3.30;1.50;;;;;;;;;;518373;28;1338;-83
2022/06/15 00:40:30;;;;;;;2.92;1.40;;;;;;;;;;517673;28;1840;-84
2022/06/15 00:40:45;;;;;;;2.87;1.40;;;;;;;;;;519147;28;973;-84
2022/06/15 00:41:03;;;;;;;2.95;1.30;;;;;;;;;;518532;28;1432;-84
2022/06/15 00:41:28;;;;;;;3.10;1.40;;;;;;;;;;516250;28;1289;-84
2022/06/15 00:41:44;;;;;;;4.65;1.50;;;;;;;;;;516341;28;870;-83
2022/06/15 00:41:59;;;;;;;4.40;1.50;;;;;;;;;;516052;28;1532;-84
2022/06/15 00:42:15;;;;;;;3.25;1.60;;;;;;;;;;516398;28;1306;-83
2022/06/15 00:42:31;;;;;;;3.70;1.60;;;;;;;;;;518071;28;862;-83
2022/06/15 00:42:46;;;;;;;3.40;1.50;;;;;;;;;;516149;28;1456;-83
2022/06/15 00:43:01;;;;;;;3.27;1.50;;;;;;;;;;518411;28;1016;-83
2022/06/15 00:43:35;;;;;;;3.57;1.50;;;;;;;;;;517829;28;1221;-83
2022/06/15 00:43:54;;;;;;;3.27;1.53;;;;;;;;;;516684;28;1542;-84
2022/06/15 00:44:18;;;;;;;2.42;1.40;;;;;;;;;;516593;28;1633;-84
2022/06/15 00:44:37;;;;;;;2.75;1.50;;;;;;;;;;515937;28;1467;-83
2022/06/15 00:44:52;;;;;;;3.00;1.40;;;;;;;;;;516008;28;1522;-84
2022/06/15 00:45:08;;;;;;;2.25;1.40;;;;;;;;;;516406;28;1570;-84
2022/06/15 00:45:24;;;;;;;2.65;1.50;;;;;;;;;;516473;28;1188;-84
2022/06/15 00:45:39;;;;;;;4.00;1.53;;;;;;;;;;516382;28;1481;-84
2022/06/15 00:45:55;;;;;;;4.53;1.45;;;;;;;;;;516383;28;1232;-83
2022/06/15 00:46:24;;;;;;;3.93;1.50;;;;;;;;;;514419;28;1523;-84
2022/06/15 00:46:42;;;;;;;3.05;1.60;;;;;;;;;;513352;28;1527;-84
2022/06/15 00:47:12;;;;;;;3.47;1.48;;;;;;;;;;514350;28;1372;-84
2022/06/15 00:47:33;;;;;;;3.88;1.58;;;;;;;;;;510541;29;1587;-84
2022/06/15 00:47:48;;;;;;;2.70;1.60;;;;;;;;;;511890;28;1380;-83
2022/06/15 00:48:04;;;;;;;3.08;1.50;;;;;;;;;;513422;28;1524;-84
2022/06/15 00:48:22;;;;;;;3.40;1.40;;;;;;;;;;512230;28;1295;-81
2022/06/15 00:48:38;;;;;;;2.55;1.52;;;;;;;;;;511726;28;1405;-84
2022/06/15 00:49:02;;;;;;;2.63;1.60;;;;;;;;;;512298;29;1432;-84
2022/06/15 00:49:26;;;;;;;3.67;1.60;;;;;;;;;;512869;28;1112;-84
2022/06/15 00:49:44;;;;;;;3.45;1.60;;;;;;;;;;512533;28;1420;-83
2022/06/15 00:50:08;;;;;;;2.70;1.55;;;;;;;;;;514986;28;1331;-83
2022/06/15 00:50:25;;;;;;;3.42;1.65;;;;;;;;;;515986;28;1921;-83
2022/06/15 00:50:40;;;;;;;3.70;1.60;;;;;;;;;;517146;28;1251;-84
2022/06/15 00:50:56;;;;;;;3.22;1.60;;;;;;;;;;516574;28;1288;-84
2022/06/15 00:51:12;;;;;;;3.90;1.47;;;;;;;;;;514531;28;1571;-83
2022/06/15 00:51:29;;;;;;;3.20;1.40;;;;;;;;;;514220;28;1280;-84
2022/06/15 00:51:48;;;;;;;2.67;1.48;;;;;;;;;;514359;28;1378;-84
2022/06/15 00:52:10;;;;;;;3.38;1.50;;;;;;;;;;514294;28;1053;-84
2022/06/15 00:52:53;;;;;;;3.58;1.60;;;;;;;;;;514332;28;1222;-83
2022/06/15 00:53:09;;;;;;;3.25;1.50;;;;;;;;;;513463;28;1289;-84
2022/06/15 00:53:24;;;;;;;3.23;1.50;;;;;;;;;;516492;28;847;-84
2022/06/15 00:53:40;;;;;;;3.45;1.50;;;;;;;;;;517987;28;1151;-84
2022/06/15 00:53:57;;;;;;;3.73;1.50;;;;;;;;;;515147;28;1258;-84
2022/06/15 00:54:13;;;;;;;3.65;1.58;;;;;;;;;;513230;28;1471;-84
2022/06/15 00:54:29;;;;;;;2.92;1.50;;;;;;;;;;514614;28;1504;-84
2022/06/15 00:54:47;;;;;;;2.35;1.52;;;;;;;;;;514176;28;1662;-84
2022/06/15 00:55:25;;;;;;;2.80;1.42;;;;;;;;;;513330;28;1563;-84
2022/06/15 00:55:41;;;;;;;2.95;1.50;;;;;;;;;;512820;28;1517;-84
2022/06/15 00:55:56;;;;;;;3.17;1.53;;;;;;;;;;513111;28;1691;-84
2022/06/15 00:56:13;;;;;;;3.40;1.60;;;;;;;;;;513112;28;1711;-83
2022/06/15 00:56:30;;;;;;;3.83;1.60;;;;;;;;;;515173;28;1271;-84
2022/06/15 00:56:45;;;;;;;3.00;1.40;;;;;;;;;;514882;28;1252;-84
2022/06/15 00:57:02;;;;;;;2.67;1.40;;;;;;;;;;512077;29;1190;-83
2022/06/15 00:57:18;;;;;;;2.40;1.40;;;;;;;;;;512408;29;1037;-83
2022/06/15 00:57:34;;;;;;;2.40;1.50;;;;;;;;;;515257;28;1686;-84
2022/06/15 00:57:50;;;;;;;3.05;1.40;;;;;;;;;;516302;28;1488;-84
2022/06/15 00:58:08;;;;;;;3.10;1.40;;;;;;;;;;514471;28;1794;-84
2022/06/15 00:58:24;;;;;;;3.33;1.42;;;;;;;;;;514848;28;807;-84
2022/06/15 00:58:43;;;;;;;2.67;1.40;;;;;;;;;;514570;28;1315;-83
2022/06/15 00:59:07;;;;;;;2.70;1.50;;;;;;;;;;513509;28;1508;-84
2022/06/15 00:59:29;;;;;;;2.97;1.50;;;;;;;;;;514292;28;1413;-83
2022/06/15 00:59:50;;;;;;;3.55;1.48;;;;;;;;;;513888;28;1449;-84
2022/06/15 01:00:07;;;;;;;4.07;1.48;;;;;;;;;;513650;28;1505;-83
2022/06/15 01:00:24;;;;;;;3.08;1.60;;;;;;;;;;516329;28;1330;-83
2022/06/15 01:00:39;;;;;;;3.30;1.70;;;;;;;;;;514990;28;1261;-83
2022/06/15 01:00:56;;;;;;;3.60;1.60;;;;;;;;;;511564;29;1279;-83
2022/06/15 01:01:11;;;;;;;3.63;1.48;;;;;;;;;;512883;28;1414;-84
2022/06/15 01:01:27;;;;;;;4.38;1.50;;;;;;;;;;512331;29;864;-83
2022/06/15 01:01:43;;;;;;;3.97;1.50;;;;;;;;;;510531;29;1283;-83
2022/06/15 01:01:58;;;;;;;2.90;1.50;;;;;;;;;;511407;29;1093;-84
2022/06/15 01:02:14;;;;;;;2.53;1.45;;;;;;;;;;512692;29;966;-84
2022/06/15 01:02:34;;;;;;;3.83;1.50;;;;;;;;;;513335;28;1457;-84
2022/06/15 01:02:50;;;;;;;3.72;1.60;;;;;;;;;;514331;28;1540;-83
2022/06/15 01:03:08;;;;;;;4.10;1.60;;;;;;;;;;516897;28;1282;-84
2022/06/15 01:03:24;;;;;;;3.35;1.52;;;;;;;;;;516087;28;1025;-84
2022/06/15 01:03:39;;;;;;;2.20;1.50;;;;;;;;;;515206;28;1552;-84
2022/06/15 01:03:57;;;;;;;4.20;1.47;;;;;;;;;;516169;28;2055;-84
2022/06/15 01:04:14;;;;;;;4.32;1.60;;;;;;;;;;516324;28;1550;-84
2022/06/15 01:04:40;;;;;;;2.55;1.60;;;;;;;;;;512165;28;1495;-84
2022/06/15 01:04:59;;;;;;;3.28;1.70;;;;;;;;;;514505;28;986;-84
2022/06/15 01:05:21;;;;;;;4.22;1.60;;;;;;;;;;512029;28;1603;-84
2022/06/15 01:06:03;;;;;;;3.13;1.60;;;;;;;;;;512887;28;1484;-83
2022/06/15 01:06:30;;;;;;;3.55;1.70;;;;;;;;;;512663;28;1278;-83
2022/06/15 01:07:13;;;;;;;2.67;1.50;;;;;;;;;;513627;28;1417;-83
2022/06/15 01:07:38;;;;;;;3.75;1.67;;;;;;;;;;514086;28;1451;-84
2022/06/15 01:08:04;;;;;;;3.53;1.45;;;;;;;;;;517155;28;942;-84
2022/06/15 01:08:24;;;;;;;4.90;1.65;;;;;;;;;;514613;28;1255;-84
2022/06/15 01:08:56;;;;;;;4.22;1.60;;;;;;;;;;515560;28;1273;-83
2022/06/15 01:09:11;;;;;;;2.40;1.50;;;;;;;;;;516541;28;1100;-83
2022/06/15 01:09:29;;;;;;;2.58;1.40;;;;;;;;;;517977;28;1352;-84
2022/06/15 01:10:01;;;;;;;2.25;1.58;;;;;;;;;;515552;28;1595;-84
2022/06/15 01:10:37;;;;;;;5.18;1.63;;;;;;;;;;512423;28;1528;-84
2022/06/15 01:11:11;;;;;;;3.40;1.45;;;;;;;;;;514211;28;1316;-83
2022/06/15 01:11:35;;;;;;;3.00;1.70;;;;;;;;;;513922;28;882;-84
2022/06/15 01:12:29;;;;;;;2.90;1.55;;;;;;;;;;515907;28;1328;-84
2022/06/15 01:12:56;;;;;;;3.55;1.80;;;;;;;;;;513320;28;1226;-83
2022/06/15 01:13:52;;;;;;;3.38;1.42;;;;;;;;;;516298;28;1224;-84
2022/06/15 01:14:17;;;;;;;2.63;1.60;;;;;;;;;;516033;28;1389;-83
2022/06/15 01:14:52;;;;;;;2.75;1.50;;;;;;;;;;515158;28;1437;-83
2022/06/15 01:15:17;;;;;;;3.28;1.40;;;;;;;;;;519273;28;1391;-84
2022/06/15 01:15:38;;;;;;;4.43;1.83;;;;;;;;;;518368;28;929;-83
2022/06/15 01:16:23;;;;;;;3.00;1.60;;;;;;;;;;517210;28;1563;-83
2022/06/15 01:16:50;;;;;;;2.97;1.52;;;;;;;;;;517486;28;1388;-84
2022/06/15 01:17:42;;;;;;;3.97;1.58;;;;;;;;;;515655;28;1379;-83
2022/06/15 01:18:07;;;;;;;3.38;1.60;;;;;;;;;;516347;28;1078;-83
2022/06/15 01:18:56;;;;;;;4.20;1.60;;;;;;;;;;516262;28;1554;-83
2022/06/15 01:19:30;;;;;;;3.10;1.40;;;;;;;;;;519773;28;1391;-83
2022/06/15 01:20:26;;;;;;;2.78;1.70;;;;;;;;;;518477;28;871;-83
2022/06/15 01:21:12;;;;;;;2.95;1.45;;;;;;;;;;520007;28;1012;-83
2022/06/15 01:21:44;;;;;;;2.97;1.65;;;;;;;;;;520073;28;1393;-83
2022/06/15 01:22:07;;;;;;;2.80;1.50;;;;;;;;;;518804;28;882;-84
2022/06/15 01:22:53;;;;;;;2.72;1.73;;;;;;;;;;518015;28;953;-83
2022/06/15 01:23:40;;;;;;;4.05;1.60;;;;;;;;;;515327;28;1372;-84
2022/06/15 01:24:31;;;;;;;2.70;1.50;;;;;;;;;;513409;28;851;-84
2022/06/15 01:25:05;;;;;;;2.70;1.60;;;;;;;;;;515472;28;1562;-84
2022/06/15 01:25:39;;;;;;;2.72;1.67;;;;;;;;;;517931;28;1470;-84
2022/06/15 01:26:32;;;;;;;3.40;1.60;;;;;;;;;;518985;28;953;-84
2022/06/15 01:27:25;;;;;;;3.33;1.60;;;;;;;;;;516055;28;1622;-84
2022/06/15 01:27:52;;;;;;;3.80;1.63;;;;;;;;;;517318;28;1534;-83
2022/06/15 01:28:21;;;;;;;3.50;1.50;;;;;;;;;;517463;28;1488;-83
2022/06/15 01:28:39;;;;;;;2.50;1.60;;;;;;;;;;519544;28;1423;-84
2022/06/15 01:29:12;;;;;;;2.15;1.45;;;;;;;;;;518722;28;1351;-83
2022/06/15 01:30:05;;;;;;;4.53;1.60;;;;;;;;;;515872;28;1870;-84
2022/06/15 01:30:27;;;;;;;3.85;1.63;;;;;;;;;;515595;28;1575;-84
2022/06/15 01:30:45;;;;;;;2.90;1.60;;;;;;;;;;516015;28;1312;-84
2022/06/15 01:31:30;;;;;;;2.30;1.52;;;;;;;;;;516259;28;1272;-83
2022/06/15 01:31:50;;;;;;;3.03;1.67;;;;;;;;;;516843;28;1250;-83
2022/06/15 01:32:17;;;;;;;2.45;1.55;;;;;;;;;;518127;28;1531;-84
2022/06/15 01:33:12;;;;;;;3.67;1.50;;;;;;;;;;517131;28;1612;-84
2022/06/15 01:33:33;;;;;;;3.13;1.60;;;;;;;;;;516089;28;1661;-84
2022/06/15 01:33:58;;;;;;;5.50;1.60;;;;;;;;;;516410;28;1454;-84
2022/06/15 01:34:22;;;;;;;5.93;1.65;;;;;;;;;;517859;28;1502;-83
2022/06/15 01:34:46;;;;;;;2.97;1.40;;;;;;;;;;516362;28;2036;-83
2022/06/15 01:35:22;;;;;;;3.30;1.60;;;;;;;;;;514788;28;887;-83
2022/06/15 01:36:00;;;;;;;4.22;1.70;;;;;;;;;;512619;28;1046;-83
2022/06/15 01:36:21;;;;;;;3.40;1.70;;;;;;;;;;515168;28;1606;-84
2022/06/15 01:37:04;;;;;;;2.88;1.60;;;;;;;;;;515859;28;1166;-83
2022/06/15 01:37:31;;;;;;;2.97;1.50;;;;;;;;;;514504;28;1264;-83
2022/06/15 01:38:19;;;;;;;3.00;1.60;;;;;;;;;;519226;28;1517;-83
2022/06/15 01:39:04;;;;;;;4.32;1.55;;;;;;;;;;518384;28;957;-83
2022/06/15 01:39:35;;;;;;;3.13;1.55;;;;;;;;;;512136;28;1336;-83
2022/06/15 01:40:23;;;;;;;2.92;1.50;;;;;;;;;;519302;28;1045;-84
2022/06/15 01:40:42;;;;;;;3.67;1.70;;;;;;;;;;515938;28;1211;-84
2022/06/15 01:41:06;;;;;;;3.45;1.60;;;;;;;;;;516558;28;913;-84
2022/06/15 01:41:34;;;;;;;3.58;1.50;;;;;;;;;;521699;28;969;-84
2022/06/15 01:42:11;;;;;;;3.05;1.50;;;;;;;;;;518040;28;1340;-84
2022/06/15 01:42:42;;;;;;;2.33;1.42;;;;;;;;;;520054;28;1219;-83
2022/06/15 01:43:03;;;;;;;4.10;1.50;;;;;;;;;;518545;28;1550;-84
2022/06/15 01:43:22;;;;;;;2.38;1.52;;;;;;;;;;518262;28;1322;-84
2022/06/15 01:43:45;;;;;;;2.58;1.60;;;;;;;;;;515794;28;1641;-84
2022/06/15 01:44:11;;;;;;;3.03;1.42;;;;;;;;;;515315;28;1256;-84
2022/06/15 01:44:58;;;;;;;2.65;1.40;;;;;;;;;;512448;29;1362;-83
2022/06/15 01:45:20;;;;;;;3.03;1.60;;;;;;;;;;512903;28;1537;-83
2022/06/15 01:45:37;;;;;;;3.05;1.55;;;;;;;;;;514580;28;902;-84
2022/06/15 01:45:55;;;;;;;4.00;1.70;;;;;;;;;;516455;28;1421;-84
2022/06/15 01:46:11;;;;;;;4.60;1.70;;;;;;;;;;520526;28;1224;-83
2022/06/15 01:46:27;;;;;;;4.45;1.70;;;;;;;;;;518759;28;1421;-84
2022/06/15 01:46:45;;;;;;;4.20;1.60;;;;;;;;;;517088;28;1530;-84
2022/06/15 01:47:05;;;;;;;3.72;1.60;;;;;;;;;;517847;28;1407;-84
2022/06/15 01:47:24;;;;;;;3.83;1.70;;;;;;;;;;520262;28;1286;-83
2022/06/15 01:47:43;;;;;;;2.80;1.70;;;;;;;;;;517474;28;1284;-84
2022/06/15 01:48:03;;;;;;;2.60;1.70;;;;;;;;;;516272;28;1245;-84
2022/06/15 01:48:19;;;;;;;2.78;1.60;;;;;;;;;;517386;28;1648;-84
2022/06/15 01:48:36;;;;;;;3.33;1.50;;;;;;;;;;516297;28;1338;-84
2022/06/15 01:48:54;;;;;;;4.82;1.60;;;;;;;;;;514634;28;1377;-84
2022/06/15 01:49:31;;;;;;;4.43;1.65;;;;;;;;;;514592;28;1725;-84
2022/06/15 01:50:11;;;;;;;2.78;1.63;;;;;;;;;;517923;28;1553;-84
2022/06/15 01:50:34;;;;;;;4.55;1.90;;;;;;;;;;518812;28;1695;-84
2022/06/15 01:50:55;;;;;;;3.50;2.00;;;;;;;;;;519180;28;1597;-83
2022/06/15 01:51:17;;;;;;;2.83;1.70;;;;;;;;;;519698;28;1458;-84
2022/06/15 01:51:36;;;;;;;2.42;1.55;;;;;;;;;;518374;28;1414;-83
2022/06/15 01:51:52;;;;;;;3.40;1.55;;;;;;;;;;517370;28;1549;-84
2022/06/15 01:52:11;;;;;;;3.55;1.70;;;;;;;;;;514143;28;1505;-84
2022/06/15 01:52:32;;;;;;;5.32;1.80;;;;;;;;;;516261;28;1491;-84
2022/06/15 01:53:09;;;;;;;3.90;1.80;;;;;;;;;;516077;28;958;-84
2022/06/15 01:53:40;;;;;;;3.97;1.88;;;;;;;;;;515170;28;1381;-84
2022/06/15 01:54:00;;;;;;;2.92;1.80;;;;;;;;;;518614;28;1574;-84
2022/06/15 01:54:26;;;;;;;2.22;1.70;;;;;;;;;;520511;28;1267;-84
2022/06/15 01:54:48;;;;;;;2.90;1.63;;;;;;;;;;522382;28;1282;-84
2022/06/15 01:55:11;;;;;;;3.58;1.67;;;;;;;;;;522460;28;1341;-83
2022/06/15 01:55:33;;;;;;;4.95;1.77;;;;;;;;;;522601;28;1223;-84
2022/06/15 01:56:11;;;;;;;3.47;1.60;;;;;;;;;;522228;28;1615;-84
2022/06/15 01:56:44;;;;;;;4.32;1.70;;;;;;;;;;521148;28;2534;-84
2022/06/15 01:57:03;;;;;;;3.80;1.90;;;;;;;;;;518862;28;2761;-84
2022/06/15 01:57:20;;;;;;;3.90;1.90;;;;;;;;;;519958;28;2414;-83
2022/06/15 01:57:38;;;;;;;3.83;1.92;;;;;;;;;;519564;28;1333;-84
2022/06/15 01:57:58;;;;;;;3.03;1.88;;;;;;;;;;520190;28;1253;-84
2022/06/15 01:58:16;;;;;;;2.60;1.60;;;;;;;;;;520162;28;925;-84
2022/06/15 01:58:35;;;;;;;3.30;1.70;;;;;;;;;;517934;28;1409;-84
2022/06/15 01:59:02;;;;;;;3.60;1.83;;;;;;;;;;517248;28;1350;-83
2022/06/15 01:59:28;;;;;;;2.88;1.73;;;;;;;;;;520264;28;952;-83
2022/06/15 01:59:49;;;;;;;4.03;1.80;;;;;;;;;;517953;28;1922;-84
2022/06/15 02:00:09;;;;;;;3.63;1.70;;;;;;;;;;518413;28;842;-84
2022/06/15 02:00:24;;;;;;;3.78;1.65;;;;;;;;;;518646;28;1337;-84
2022/06/15 02:00:41;;;;;;;3.50;1.73;;;;;;;;;;520222;28;1199;-84
2022/06/15 02:01:08;;;;;;;3.90;1.80;;;;;;;;;;518281;28;1224;-83
2022/06/15 02:01:50;;;;;;;2.80;1.70;;;;;;;;;;517789;28;1604;-84
2022/06/15 02:02:27;;;;;;;4.05;1.70;;;;;;;;;;518363;28;1435;-83
2022/06/15 02:03:00;;;;;;;2.63;1.70;;;;;;;;;;517978;28;1344;-84
2022/06/15 02:03:25;;;;;;;3.17;1.90;;;;;;;;;;520478;28;1486;-83
2022/06/15 02:04:15;;;;;;;3.10;1.80;;;;;;;;;;520129;28;1513;-84
2022/06/15 02:04:49;;;;;;;3.95;1.90;;;;;;;;;;516098;28;1186;-84
2022/06/15 02:05:18;;;;;;;3.30;1.60;;;;;;;;;;514519;28;1527;-84
2022/06/15 02:05:45;;;;;;;2.83;1.65;;;;;;;;;;518374;28;1188;-84
2022/06/15 02:06:10;;;;;;;2.53;1.80;;;;;;;;;;516024;28;1328;-83
2022/06/15 02:06:40;;;;;;;4.75;1.90;;;;;;;;;;518275;28;881;-83
2022/06/15 02:07:33;;;;;;;4.88;1.95;;;;;;;;;;515093;28;1311;-83
2022/06/15 02:07:55;;;;;;;3.10;1.70;;;;;;;;;;508383;29;1042;-84
2022/06/15 02:08:18;;;;;;;4.13;1.70;;;;;;;;;;510488;29;1907;-84
2022/06/15 02:08:49;;;;;;;3.83;1.60;;;;;;;;;;512553;28;1420;-84
2022/06/15 02:09:32;;;;;;;4.22;1.90;;;;;;;;;;519798;28;1498;-83
2022/06/15 02:10:00;;;;;;;2.60;1.67;;;;;;;;;;518009;28;1431;-83
2022/06/15 02:10:40;;;;;;;2.55;1.55;;;;;;;;;;518217;28;1384;-83
2022/06/15 02:11:07;;;;;;;3.30;1.70;;;;;;;;;;517444;28;1536;-83
2022/06/15 02:11:38;;;;;;;4.65;1.80;;;;;;;;;;518506;28;1996;-84
2022/06/15 02:11:57;;;;;;;3.47;1.83;;;;;;;;;;517637;28;1469;-84
2022/06/15 02:12:18;;;;;;;3.17;1.70;;;;;;;;;;517193;28;1596;-83
2022/06/15 02:12:51;;;;;;;4.05;1.80;;;;;;;;;;515492;28;1169;-83
2022/06/15 02:13:21;;;;;;;4.90;1.73;;;;;;;;;;516188;28;1656;-84
2022/06/15 02:13:52;;;;;;;3.67;1.83;;;;;;;;;;517257;28;1447;-84
2022/06/15 02:14:26;;;;;;;3.78;1.70;;;;;;;;;;517911;28;1036;-83
2022/06/15 02:14:48;;;;;;;3.80;1.70;;;;;;;;;;516389;28;1478;-83
2022/06/15 02:15:07;;;;;;;3.15;1.70;;;;;;;;;;515707;28;1532;-83
2022/06/15 02:15:25;;;;;;;3.78;1.80;;;;;;;;;;516003;28;1665;-83
2022/06/15 02:15:46;;;;;;;3.13;1.70;;;;;;;;;;514646;28;1383;-84